createdAt,value
2018-08-16T00:00:27.065Z,949.93
2018-08-16T00:01:27.039Z,949.93
2018-08-16T00:02:27.039Z,949.93
2018-08-16T00:03:27.030Z,949.92
2018-08-16T00:04:27.028Z,949.96
2018-08-16T00:05:27.028Z,949.97
2018-08-16T00:06:27.031Z,949.95
2018-08-16T00:07:27.024Z,949.92
2018-08-16T00:08:27.025Z,949.92
2018-08-16T00:09:27.015Z,949.96
2018-08-16T00:10:27.003Z,949.93
2018-08-16T00:11:27.004Z,949.92
2018-08-16T00:12:27.009Z,949.92
2018-08-16T00:13:27.009Z,949.90
2018-08-16T00:14:27.006Z,949.88
2018-08-16T00:15:27.004Z,949.93
2018-08-16T00:16:26.990Z,949.88
2018-08-16T00:17:27.001Z,949.88
2018-08-16T00:18:26.997Z,949.86
2018-08-16T00:19:26.994Z,949.85
2018-08-16T00:20:26.983Z,949.83
2018-08-16T00:21:26.993Z,949.81
2018-08-16T00:22:26.984Z,949.81
2018-08-16T00:23:26.971Z,949.79
2018-08-16T00:24:26.973Z,949.79
2018-08-16T00:25:26.972Z,949.79
2018-08-16T00:26:26.981Z,949.78
2018-08-16T00:27:26.966Z,949.78
2018-08-16T00:28:26.966Z,949.83
2018-08-16T00:29:26.962Z,949.77
2018-08-16T00:30:26.955Z,949.78
2018-08-16T00:31:26.956Z,949.79
2018-08-16T00:32:26.953Z,949.78
2018-08-16T00:33:26.955Z,949.75
2018-08-16T00:34:26.934Z,949.77
2018-08-16T00:35:26.942Z,949.72
2018-08-16T00:36:26.947Z,949.69
2018-08-16T00:37:26.932Z,949.69
2018-08-16T00:38:26.969Z,949.70
2018-08-16T00:39:26.935Z,949.70
2018-08-16T00:40:26.927Z,949.67
2018-08-16T00:41:26.928Z,949.68
2018-08-16T00:42:26.917Z,949.68
2018-08-16T00:43:26.916Z,949.73
2018-08-16T00:44:26.920Z,949.70
2018-08-16T00:45:26.919Z,949.66
2018-08-16T00:46:26.916Z,949.66
2018-08-16T00:47:26.913Z,949.66
2018-08-16T00:48:27.019Z,949.69
2018-08-16T00:49:26.915Z,949.65
2018-08-16T00:50:26.903Z,949.64
2018-08-16T00:51:26.900Z,949.61
2018-08-16T00:52:26.885Z,949.63
2018-08-16T00:53:26.883Z,949.66
2018-08-16T00:54:26.896Z,949.66
2018-08-16T00:55:26.878Z,949.60
2018-08-16T00:56:26.877Z,949.64
2018-08-16T00:57:26.881Z,949.62
2018-08-16T00:58:26.880Z,949.61
2018-08-16T00:59:26.875Z,949.64
2018-08-16T01:00:26.874Z,949.61
2018-08-16T01:01:26.943Z,949.60
2018-08-16T01:02:26.948Z,949.62
2018-08-16T01:03:26.858Z,949.59
2018-08-16T01:04:26.865Z,949.57
2018-08-16T01:05:26.859Z,949.55
2018-08-16T01:06:26.858Z,949.56
2018-08-16T01:07:26.842Z,949.54
2018-08-16T01:08:26.852Z,949.55
2018-08-16T01:09:26.838Z,949.56
2018-08-16T01:10:26.844Z,949.57
2018-08-16T01:11:26.851Z,949.54
2018-08-16T01:12:26.839Z,949.51
2018-08-16T01:13:26.829Z,949.52
2018-08-16T01:14:26.832Z,949.49
2018-08-16T01:15:26.820Z,949.49
2018-08-16T01:16:26.820Z,949.50
2018-08-16T01:17:26.819Z,949.47
2018-08-16T01:18:26.819Z,949.49
2018-08-16T01:19:26.824Z,949.46
2018-08-16T01:20:26.811Z,949.46
2018-08-16T01:21:26.814Z,949.47
2018-08-16T01:22:26.797Z,949.48
2018-08-16T01:23:26.804Z,949.43
2018-08-16T01:24:26.795Z,949.42
2018-08-16T01:25:26.788Z,949.39
2018-08-16T01:26:26.796Z,949.43
2018-08-16T01:27:26.795Z,949.45
2018-08-16T01:28:26.793Z,949.42
2018-08-16T01:29:26.780Z,949.41
2018-08-16T01:30:26.772Z,949.40
2018-08-16T02:04:57.994Z,949.27
2018-08-16T02:05:57.961Z,949.29
2018-08-16T02:06:57.948Z,949.30
2018-08-16T02:07:57.936Z,949.27
2018-08-16T02:08:57.931Z,949.30
2018-08-16T02:09:57.925Z,949.31
2018-08-16T02:10:57.923Z,949.32
2018-08-16T02:11:57.922Z,949.31
2018-08-16T02:12:57.911Z,949.34
2018-08-16T02:13:57.915Z,949.33
2018-08-16T02:14:57.895Z,949.34
2018-08-16T02:15:57.891Z,949.34
2018-08-16T02:16:57.888Z,949.32
2018-08-16T02:17:57.888Z,949.37
2018-08-16T02:18:57.884Z,949.34
2018-08-16T02:19:57.893Z,949.39
2018-08-16T02:20:57.872Z,949.37
2018-08-16T02:21:57.870Z,949.38
2018-08-16T02:22:57.852Z,949.37
2018-08-16T02:23:57.862Z,949.37
2018-08-16T02:24:57.862Z,949.34
2018-08-16T02:25:57.855Z,949.36
2018-08-16T02:26:57.845Z,949.35
2018-08-16T02:27:57.832Z,949.35
2018-08-16T02:28:57.839Z,949.34
2018-08-16T02:29:57.845Z,949.34
2018-08-16T02:30:57.826Z,949.34
2018-08-16T02:31:57.831Z,949.34
2018-08-16T02:32:57.825Z,949.33
2018-08-16T02:33:57.821Z,949.36
2018-08-16T02:34:57.834Z,949.34
2018-08-16T02:35:57.822Z,949.31
2018-08-16T02:36:57.816Z,949.35
2018-08-16T02:37:57.812Z,949.32
2018-08-16T02:38:57.809Z,949.31
2018-08-16T02:39:57.811Z,949.33
2018-08-16T02:40:57.789Z,949.28
2018-08-16T02:41:57.798Z,949.29
2018-08-16T02:42:57.789Z,949.26
2018-08-16T02:43:57.793Z,949.28
2018-08-16T02:44:57.785Z,949.26
2018-08-16T02:45:57.790Z,949.24
2018-08-16T02:46:57.781Z,949.27
2018-08-16T02:47:57.773Z,949.27
2018-08-16T02:48:57.768Z,949.24
2018-08-16T02:49:57.777Z,949.25
2018-08-16T02:50:57.803Z,949.23
2018-08-16T02:51:57.763Z,949.26
2018-08-16T02:52:57.762Z,949.24
2018-08-16T02:53:57.761Z,949.27
2018-08-16T02:54:58.225Z,949.29
2018-08-16T02:55:57.754Z,949.29
2018-08-16T02:56:57.750Z,949.22
2018-08-16T02:57:57.748Z,949.21
2018-08-16T02:58:57.746Z,949.23
2018-08-16T02:59:57.746Z,949.24
2018-08-16T03:00:57.729Z,949.23
2018-08-16T03:01:57.742Z,949.21
2018-08-16T03:02:57.730Z,949.21
2018-08-16T03:03:57.730Z,949.19
2018-08-16T03:04:57.729Z,949.19
2018-08-16T03:05:57.747Z,949.17
2018-08-16T03:06:57.720Z,949.20
2018-08-16T03:07:57.718Z,949.17
2018-08-16T03:08:57.708Z,949.25
2018-08-16T03:09:57.710Z,949.23
2018-08-16T03:10:57.711Z,949.23
2018-08-16T03:11:57.697Z,949.23
2018-08-16T03:12:57.705Z,949.23
2018-08-16T03:13:57.696Z,949.21
2018-08-16T03:14:57.709Z,949.17
2018-08-16T03:15:57.684Z,949.17
2018-08-16T03:16:57.684Z,949.19
2018-08-16T03:17:57.679Z,949.16
2018-08-16T03:18:57.678Z,949.16
2018-08-16T03:19:57.680Z,949.17
2018-08-16T03:20:57.668Z,949.13
2018-08-16T03:21:57.668Z,949.12
2018-08-16T03:22:57.669Z,949.13
2018-08-16T03:23:57.664Z,949.12
2018-08-16T03:24:57.655Z,949.16
2018-08-16T03:25:57.654Z,949.13
2018-08-16T03:26:57.655Z,949.10
2018-08-16T03:27:57.647Z,949.15
2018-08-16T03:28:57.648Z,949.08
2018-08-16T03:29:57.643Z,949.06
2018-08-16T03:30:57.631Z,949.06
2018-08-16T03:31:57.640Z,949.04
2018-08-16T03:32:57.638Z,949.03
2018-08-16T03:33:57.631Z,949.04
2018-08-16T03:34:57.623Z,949.07
2018-08-16T03:35:57.639Z,949.02
2018-08-16T03:36:57.619Z,949.03
2018-08-16T03:37:57.610Z,949.02
2018-08-16T03:38:57.604Z,949.05
2018-08-16T03:39:57.613Z,949.03
2018-08-16T03:40:57.612Z,949.05
2018-08-16T03:41:57.605Z,949.04
2018-08-16T03:42:57.603Z,949.06
2018-08-16T03:43:57.597Z,949.03
2018-08-16T03:44:57.595Z,949.05
2018-08-16T03:45:57.584Z,949.03
2018-08-16T03:46:57.578Z,949.02
2018-08-16T03:47:57.646Z,948.97
2018-08-16T03:48:57.585Z,949.00
2018-08-16T03:49:57.577Z,948.93
2018-08-16T03:50:57.579Z,948.95
2018-08-16T03:51:57.564Z,948.95
2018-08-16T03:52:57.559Z,948.93
2018-08-16T03:53:57.555Z,948.91
2018-08-16T03:54:57.562Z,948.93
2018-08-16T03:55:57.555Z,948.93
2018-08-16T03:56:57.551Z,948.96
2018-08-16T03:57:57.548Z,948.94
2018-08-16T03:58:57.546Z,948.96
2018-08-16T03:59:57.541Z,948.98
2018-08-16T04:00:57.527Z,948.99
2018-08-16T04:01:57.540Z,948.96
2018-08-16T04:02:57.530Z,948.97
2018-08-16T04:03:57.563Z,949.00
2018-08-16T04:04:57.534Z,949.03
2018-08-16T04:05:57.524Z,949.07
2018-08-16T04:06:57.515Z,949.05
2018-08-16T04:07:57.527Z,949.06
2018-08-16T04:08:57.513Z,949.08
2018-08-16T04:09:57.524Z,949.05
2018-08-16T04:10:57.497Z,949.03
2018-08-16T04:11:57.501Z,949.06
2018-08-16T04:12:57.510Z,949.11
2018-08-16T04:13:57.495Z,949.08
2018-08-16T04:14:57.502Z,949.12
2018-08-16T04:15:57.487Z,949.14
2018-08-16T04:16:57.480Z,949.15
2018-08-16T04:17:57.470Z,949.15
2018-08-16T04:18:57.478Z,949.16
2018-08-16T04:19:57.482Z,949.17
2018-08-16T04:20:57.467Z,949.13
2018-08-16T04:21:57.458Z,949.17
2018-08-16T04:22:57.479Z,949.17
2018-08-16T04:23:57.461Z,949.12
2018-08-16T04:24:57.452Z,949.14
2018-08-16T04:25:57.460Z,949.12
2018-08-16T04:26:57.460Z,949.13
2018-08-16T04:27:57.442Z,949.16
2018-08-16T04:28:57.468Z,949.16
2018-08-16T04:29:57.441Z,949.17
2018-08-16T04:30:57.429Z,949.15
2018-08-16T04:31:57.430Z,949.20
2018-08-16T04:32:57.430Z,949.22
2018-08-16T04:33:57.430Z,949.18
2018-08-16T04:34:57.437Z,949.19
2018-08-16T04:35:57.417Z,949.15
2018-08-16T04:36:57.419Z,949.16
2018-08-16T04:37:57.432Z,949.13
2018-08-16T04:38:57.402Z,949.17
2018-08-16T04:39:57.404Z,949.13
2018-08-16T04:40:57.397Z,949.14
2018-08-16T04:41:57.470Z,949.11
2018-08-16T04:42:57.402Z,949.13
2018-08-16T04:43:57.395Z,949.14
2018-08-16T04:44:57.390Z,949.15
2018-08-16T04:45:57.390Z,949.17
2018-08-16T04:46:57.393Z,949.18
2018-08-16T04:47:57.379Z,949.21
2018-08-16T04:48:57.381Z,949.19
2018-08-16T04:49:57.373Z,949.18
2018-08-16T04:50:57.359Z,949.17
2018-08-16T04:51:57.356Z,949.20
2018-08-16T04:52:57.362Z,949.19
2018-08-16T04:53:57.357Z,949.19
2018-08-16T04:54:57.357Z,949.23
2018-08-16T04:55:57.345Z,949.22
2018-08-16T04:56:57.375Z,949.18
2018-08-16T04:57:57.347Z,949.20
2018-08-16T04:58:57.339Z,949.20
2018-08-16T04:59:57.342Z,949.22
2018-08-16T05:00:57.340Z,949.21
2018-08-16T05:01:57.332Z,949.23
2018-08-16T05:02:57.331Z,949.21
2018-08-16T05:03:57.331Z,949.20
2018-08-16T05:04:57.320Z,949.18
2018-08-16T05:05:57.323Z,949.19
2018-08-16T05:06:57.322Z,949.18
2018-08-16T05:07:57.311Z,949.17
2018-08-16T05:08:57.308Z,949.13
2018-08-16T05:09:57.308Z,949.12
2018-08-16T05:10:57.302Z,949.13
2018-08-16T05:11:57.301Z,949.15
2018-08-16T05:12:57.313Z,949.13
2018-08-16T05:13:57.290Z,949.15
2018-08-16T05:14:57.295Z,949.14
2018-08-16T05:15:57.291Z,949.14
2018-08-16T05:16:57.291Z,949.13
2018-08-16T05:17:57.289Z,949.10
2018-08-16T05:18:57.283Z,949.11
2018-08-16T05:19:57.274Z,949.14
2018-08-16T05:20:57.312Z,949.13
2018-08-16T05:21:57.277Z,949.10
2018-08-16T05:22:57.273Z,949.12
2018-08-16T05:23:57.310Z,949.10
2018-08-16T05:24:57.269Z,949.09
2018-08-16T05:25:57.275Z,949.06
2018-08-16T05:26:57.268Z,949.08
2018-08-16T05:27:57.262Z,949.06
2018-08-16T05:28:57.256Z,949.06
2018-08-16T05:29:57.265Z,949.07
2018-08-16T05:30:57.273Z,949.07
2018-08-16T05:31:57.243Z,949.11
2018-08-16T05:32:57.237Z,949.07
2018-08-16T05:33:57.243Z,949.11
2018-08-16T05:34:57.234Z,949.08
2018-08-16T05:35:57.234Z,949.09
2018-08-16T05:36:57.231Z,949.07
2018-08-16T05:37:57.231Z,949.10
2018-08-16T05:38:57.232Z,949.09
2018-08-16T05:39:57.218Z,949.12
2018-08-16T05:40:57.233Z,949.14
2018-08-16T05:41:57.213Z,949.10
2018-08-16T05:42:57.273Z,949.14
2018-08-16T05:43:57.208Z,949.13
2018-08-16T05:44:57.210Z,949.13
2018-08-16T05:45:57.201Z,949.12
2018-08-16T05:46:57.207Z,949.13
2018-08-16T05:47:57.203Z,949.13
2018-08-16T05:48:57.210Z,949.18
2018-08-16T05:49:57.201Z,949.16
2018-08-16T05:50:57.230Z,949.12
2018-08-16T05:51:57.196Z,949.15
2018-08-16T05:52:57.190Z,949.16
2018-08-16T05:53:57.198Z,949.17
2018-08-16T05:54:57.197Z,949.13
2018-08-16T05:55:57.181Z,949.15
2018-08-16T05:56:57.185Z,949.13
2018-08-16T05:57:57.192Z,949.14
2018-08-16T05:58:57.182Z,949.15
2018-08-16T05:59:57.186Z,949.15
2018-08-16T06:00:57.181Z,949.13
2018-08-16T06:01:57.175Z,949.09
2018-08-16T06:02:57.191Z,949.16
2018-08-16T06:03:57.180Z,949.11
2018-08-16T06:04:57.181Z,949.11
2018-08-16T06:05:57.169Z,949.09
2018-08-16T06:06:57.173Z,949.05
2018-08-16T06:07:57.170Z,949.06
2018-08-16T06:08:57.170Z,949.03
2018-08-16T06:09:57.166Z,949.01
2018-08-16T06:10:57.164Z,948.99
2018-08-16T06:11:57.208Z,948.97
2018-08-16T06:12:57.169Z,948.96
2018-08-16T06:13:57.175Z,949.00
2018-08-16T06:14:57.157Z,948.98
2018-08-16T06:15:57.153Z,948.98
2018-08-16T06:16:57.158Z,949.00
2018-08-16T06:17:57.170Z,949.00
2018-08-16T06:18:57.160Z,949.03
2018-08-16T06:19:57.158Z,949.03
2018-08-16T06:20:57.172Z,949.05
2018-08-16T06:21:57.159Z,949.09
2018-08-16T06:22:57.156Z,949.04
2018-08-16T06:23:57.214Z,949.05
2018-08-16T06:24:57.160Z,949.04
2018-08-16T06:25:57.175Z,949.08
2018-08-16T06:26:57.152Z,949.03
2018-08-16T06:27:57.151Z,949.07
2018-08-16T06:28:57.160Z,949.08
2018-08-16T06:29:57.161Z,949.07
2018-08-16T06:30:57.158Z,949.02
2018-08-16T06:31:57.156Z,949.03
2018-08-16T06:32:57.152Z,949.04
2018-08-16T06:33:57.152Z,949.07
2018-08-16T06:34:57.172Z,949.04
2018-08-16T06:35:57.167Z,949.05
2018-08-16T06:36:57.150Z,949.08
2018-08-16T06:37:57.153Z,949.07
2018-08-16T06:38:57.257Z,949.07
2018-08-16T06:39:57.161Z,949.04
2018-08-16T06:40:57.172Z,949.07
2018-08-16T06:41:57.153Z,949.07
2018-08-16T06:42:57.155Z,949.06
2018-08-16T06:43:57.157Z,949.08
2018-08-16T06:44:57.154Z,949.06
2018-08-16T06:45:57.172Z,949.03
2018-08-16T06:46:57.158Z,949.02
2018-08-16T06:47:57.162Z,949.04
2018-08-16T06:48:57.163Z,949.02
2018-08-16T06:49:57.162Z,949.03
2018-08-16T06:50:57.181Z,948.98
2018-08-16T06:51:57.172Z,949.00
2018-08-16T06:52:57.163Z,949.02
2018-08-16T06:53:57.158Z,949.01
2018-08-16T06:54:57.173Z,949.02
2018-08-16T06:55:57.178Z,948.98
2018-08-16T06:56:57.166Z,949.03
2018-08-16T06:57:57.174Z,949.03
2018-08-16T06:58:57.187Z,949.05
2018-08-16T06:59:57.175Z,949.06
2018-08-16T07:00:57.197Z,949.00
2018-08-16T07:01:57.175Z,949.02
2018-08-16T07:02:57.180Z,949.03
2018-08-16T07:03:57.172Z,949.00
2018-08-16T07:04:57.219Z,949.01
2018-08-16T07:05:57.180Z,949.05
2018-08-16T07:06:57.189Z,949.00
2018-08-16T07:07:57.185Z,949.03
2018-08-16T07:08:57.186Z,949.00
2018-08-16T07:09:57.189Z,948.95
2018-08-16T07:10:57.185Z,948.97
2018-08-16T07:11:57.253Z,948.93
2018-08-16T07:12:57.198Z,948.93
2018-08-16T07:13:57.185Z,948.93
2018-08-16T07:14:57.204Z,948.90
2018-08-16T07:15:57.203Z,948.93
2018-08-16T07:16:57.202Z,948.92
2018-08-16T07:17:57.206Z,948.95
2018-08-16T07:18:57.208Z,948.96
2018-08-16T07:19:57.214Z,948.94
2018-08-16T07:20:57.231Z,948.92
2018-08-16T07:21:57.217Z,948.90
2018-08-16T07:22:57.215Z,948.90
2018-08-16T07:23:57.222Z,948.91
2018-08-16T07:24:57.212Z,948.91
2018-08-16T07:25:57.224Z,948.96
2018-08-16T07:26:57.219Z,949.04
2018-08-16T07:27:57.225Z,949.02
2018-08-16T07:28:57.233Z,949.04
2018-08-16T07:29:57.263Z,949.05
2018-08-16T07:30:57.234Z,949.04
2018-08-16T07:31:57.250Z,949.04
2018-08-16T07:32:57.255Z,949.05
2018-08-16T07:33:57.256Z,949.03
2018-08-16T07:34:57.270Z,949.09
2018-08-16T07:35:57.285Z,949.03
2018-08-16T07:36:57.281Z,949.10
2018-08-16T07:37:57.307Z,949.02
2018-08-16T07:38:57.297Z,949.06
2018-08-16T07:39:57.303Z,949.04
2018-08-16T07:40:57.320Z,949.06
2018-08-16T07:41:57.322Z,949.08
2018-08-16T07:42:57.328Z,949.00
2018-08-16T07:43:57.336Z,949.04
2018-08-16T07:44:57.355Z,949.09
2018-08-16T07:45:57.440Z,949.11
2018-08-16T07:46:57.388Z,949.11
2018-08-16T07:47:57.413Z,949.12
2018-08-16T07:48:57.440Z,949.12
2018-08-16T07:49:57.456Z,949.14
2018-08-16T07:50:58.102Z,949.15
2018-08-16T07:51:57.489Z,949.08
2018-08-16T07:52:58.821Z,949.12
2018-08-16T07:53:57.497Z,949.11
2018-08-16T07:54:57.737Z,949.10
2018-08-16T07:55:57.474Z,949.13
2018-08-16T07:56:57.521Z,949.13
2018-08-16T07:57:57.489Z,949.13
2018-08-16T07:58:57.501Z,949.08
2018-08-16T07:59:57.543Z,949.11
2018-08-16T08:00:57.530Z,949.13
2018-08-16T08:01:57.547Z,949.14
2018-08-16T08:02:57.557Z,949.19
2018-08-16T08:03:57.598Z,949.16
2018-08-16T08:04:57.874Z,949.15
2018-08-16T08:05:57.980Z,949.17
2018-08-16T08:06:59.127Z,949.15
2018-08-16T08:07:57.898Z,949.18
2018-08-16T08:08:57.962Z,949.16
2018-08-16T08:09:58.132Z,949.16
2018-08-16T08:10:58.107Z,949.13
2018-08-16T08:11:58.142Z,949.12
2018-08-16T08:12:58.038Z,949.14
2018-08-16T08:13:58.122Z,949.14
2018-08-16T08:14:57.916Z,949.12
2018-08-16T08:15:58.055Z,949.11
2018-08-16T08:16:57.734Z,949.11
2018-08-16T08:17:57.752Z,949.12
2018-08-16T08:18:57.768Z,949.11
2018-08-16T08:19:57.780Z,949.15
2018-08-16T08:20:57.789Z,949.15
2018-08-16T08:21:57.811Z,949.15
2018-08-16T08:22:57.813Z,949.13
2018-08-16T08:23:57.843Z,949.15
2018-08-16T08:24:57.849Z,949.16
2018-08-16T08:25:57.871Z,949.12
2018-08-16T08:26:57.877Z,949.12
2018-08-16T08:27:57.905Z,949.12
2018-08-16T08:28:57.910Z,949.10
2018-08-16T08:29:57.931Z,949.15
2018-08-16T08:30:57.942Z,949.09
2018-08-16T08:31:57.958Z,949.12
2018-08-16T08:32:57.975Z,949.04
2018-08-16T08:33:57.999Z,949.01
2018-08-16T08:34:58.000Z,949.04
2018-08-16T08:35:58.017Z,949.01
2018-08-16T08:36:58.041Z,949.03
2018-08-16T08:37:58.052Z,949.04
2018-08-16T08:38:58.124Z,949.04
2018-08-16T08:39:58.089Z,949.04
2018-08-16T08:40:58.088Z,949.01
2018-08-16T08:41:58.122Z,949.01
2018-08-16T08:42:58.130Z,949.00
2018-08-16T08:43:58.147Z,949.01
2018-08-16T08:44:58.161Z,948.99
2018-08-16T08:45:58.174Z,948.99
2018-08-16T08:46:58.195Z,949.00
2018-08-16T08:47:58.203Z,948.97
2018-08-16T08:48:58.222Z,948.98
2018-08-16T08:49:58.241Z,948.98
2018-08-16T08:50:58.264Z,948.98
2018-08-16T08:51:58.271Z,948.94
2018-08-16T08:52:58.291Z,948.98
2018-08-16T08:53:58.311Z,948.95
2018-08-16T08:54:58.326Z,948.94
2018-08-16T08:55:58.335Z,948.91
2018-08-16T08:56:58.364Z,948.96
2018-08-16T08:57:58.376Z,948.96
2018-08-16T08:58:58.392Z,948.97
2018-08-16T08:59:58.404Z,948.97
2018-08-16T09:00:58.419Z,948.98
2018-08-16T09:01:58.445Z,948.98
2018-08-16T09:02:58.462Z,948.97
2018-08-16T09:03:58.480Z,948.93
2018-08-16T09:04:58.500Z,948.93
2018-08-16T09:05:58.513Z,948.94
2018-08-16T09:06:58.576Z,948.92
2018-08-16T09:07:58.555Z,948.94
2018-08-16T09:08:58.567Z,948.89
2018-08-16T09:09:58.580Z,948.91
2018-08-16T09:10:58.602Z,948.90
2018-08-16T09:11:58.616Z,948.95
2018-08-16T09:12:58.639Z,948.89
2018-08-16T09:13:58.659Z,948.88
2018-08-16T09:14:58.742Z,948.87
2018-08-16T09:15:58.701Z,948.89
2018-08-16T09:16:58.697Z,948.89
2018-08-16T09:17:58.738Z,948.87
2018-08-16T09:18:58.758Z,948.86
2018-08-16T09:19:58.766Z,948.86
2018-08-16T09:20:58.784Z,948.86
2018-08-16T09:21:58.807Z,948.89
2018-08-16T09:22:58.829Z,948.83
2018-08-16T09:23:58.899Z,948.79
2018-08-16T09:24:58.859Z,948.85
2018-08-16T09:25:58.892Z,948.76
2018-08-16T09:26:58.910Z,948.75
2018-08-16T09:27:58.924Z,948.74
2018-08-16T09:28:58.940Z,948.73
2018-08-16T09:29:58.968Z,948.71
2018-08-16T09:30:58.979Z,948.71
2018-08-16T09:31:58.998Z,948.72
2018-08-16T09:32:59.029Z,948.67
2018-08-16T09:33:59.039Z,948.66
2018-08-16T09:34:59.065Z,948.69
2018-08-16T09:35:59.072Z,948.65
2018-08-16T09:36:59.102Z,948.63
2018-08-16T09:37:59.120Z,948.63
2018-08-16T09:38:59.142Z,948.58
2018-08-16T09:39:59.168Z,948.60
2018-08-16T09:40:59.173Z,948.55
2018-08-16T09:41:59.199Z,948.52
2018-08-16T09:42:59.224Z,948.51
2018-08-16T09:43:59.228Z,948.49
2018-08-16T09:44:59.260Z,948.52
2018-08-16T09:45:59.276Z,948.52
2018-08-16T09:46:59.299Z,948.49
2018-08-16T09:47:59.312Z,948.51
2018-08-16T09:48:59.335Z,948.44
2018-08-16T09:49:59.354Z,948.46
2018-08-16T09:50:59.370Z,948.45
2018-08-16T09:51:59.400Z,948.43
2018-08-16T09:52:59.409Z,948.40
2018-08-16T09:53:59.453Z,948.43
2018-08-16T09:54:59.436Z,948.35
2018-08-16T09:55:59.470Z,948.40
2018-08-16T09:56:59.487Z,948.37
2018-08-16T09:57:59.508Z,948.38
2018-08-16T09:58:59.519Z,948.36
2018-08-16T09:59:59.539Z,948.37
2018-08-16T10:00:59.564Z,948.36
2018-08-16T10:01:59.635Z,948.35
2018-08-16T10:02:59.610Z,948.35
2018-08-16T10:03:59.618Z,948.34
2018-08-16T10:04:59.635Z,948.37
2018-08-16T10:05:59.653Z,948.33
2018-08-16T10:06:59.669Z,948.29
2018-08-16T10:07:59.681Z,948.30
2018-08-16T10:08:59.707Z,948.31
2018-08-16T10:09:59.722Z,948.33
2018-08-16T10:10:59.747Z,948.29
2018-08-16T10:11:59.778Z,948.31
2018-08-16T10:12:59.782Z,948.29
2018-08-16T10:13:59.792Z,948.32
2018-08-16T10:14:59.807Z,948.31
2018-08-16T10:15:59.831Z,948.29
2018-08-16T10:16:59.848Z,948.31
2018-08-16T10:17:59.867Z,948.29
2018-08-16T10:18:59.879Z,948.32
2018-08-16T10:19:59.901Z,948.29
2018-08-16T10:20:59.948Z,948.29
2018-08-16T10:21:59.931Z,948.29
2018-08-16T10:22:59.951Z,948.24
2018-08-16T10:23:59.969Z,948.28
2018-08-16T10:24:59.983Z,948.22
2018-08-16T10:26:00.002Z,948.21
2018-08-16T10:27:00.057Z,948.21
2018-08-16T10:28:00.035Z,948.22
2018-08-16T10:29:00.058Z,948.21
2018-08-16T10:30:00.066Z,948.17
2018-08-16T10:31:00.077Z,948.15
2018-08-16T10:32:00.103Z,948.17
2018-08-16T10:33:00.120Z,948.16
2018-08-16T10:34:00.142Z,948.11
2018-08-16T10:35:00.159Z,948.13
2018-08-16T10:36:00.175Z,948.11
2018-08-16T10:37:00.191Z,948.10
2018-08-16T10:38:00.207Z,948.06
2018-08-16T10:39:00.213Z,948.06
2018-08-16T10:40:00.235Z,948.08
2018-08-16T10:41:00.260Z,948.06
2018-08-16T10:42:00.273Z,948.04
2018-08-16T10:43:00.288Z,948.06
2018-08-16T10:44:00.308Z,948.09
2018-08-16T10:45:00.330Z,948.08
2018-08-16T10:46:00.345Z,948.07
2018-08-16T10:47:00.378Z,948.03
2018-08-16T10:48:00.372Z,948.02
2018-08-16T10:49:00.394Z,948.04
2018-08-16T10:50:00.424Z,947.98
2018-08-16T10:51:00.434Z,948.01
2018-08-16T10:52:00.447Z,948.01
2018-08-16T10:53:00.472Z,947.95
2018-08-16T10:54:00.477Z,947.98
2018-08-16T10:55:00.502Z,947.94
2018-08-16T10:56:00.521Z,947.95
2018-08-16T10:57:00.532Z,947.93
2018-08-16T10:58:00.546Z,947.94
2018-08-16T10:59:00.558Z,947.95
2018-08-16T11:00:00.637Z,947.95
2018-08-16T11:01:00.606Z,947.91
2018-08-16T11:02:00.618Z,947.87
2018-08-16T11:03:00.629Z,947.87
2018-08-16T11:04:00.654Z,947.84
2018-08-16T11:05:00.656Z,947.85
2018-08-16T11:06:00.692Z,947.88
2018-08-16T11:07:00.703Z,947.88
2018-08-16T11:08:00.718Z,947.89
2018-08-16T11:09:00.735Z,947.87
2018-08-16T11:10:00.748Z,947.85
2018-08-16T11:11:00.770Z,947.82
2018-08-16T11:12:00.777Z,947.82
2018-08-16T11:13:00.799Z,947.84
2018-08-16T11:14:00.822Z,947.84
2018-08-16T11:15:00.852Z,947.77
2018-08-16T11:16:00.848Z,947.77
2018-08-16T11:17:00.860Z,947.77
2018-08-16T11:18:00.888Z,947.78
2018-08-16T11:19:00.999Z,947.73
2018-08-16T11:20:00.912Z,947.72
2018-08-16T11:21:00.942Z,947.77
2018-08-16T11:22:00.944Z,947.71
2018-08-16T11:23:00.957Z,947.71
2018-08-16T11:24:00.975Z,947.72
2018-08-16T11:25:00.994Z,947.70
2018-08-16T11:26:01.014Z,947.70
2018-08-16T11:27:01.033Z,947.73
2018-08-16T11:28:01.048Z,947.71
2018-08-16T11:29:01.060Z,947.74
2018-08-16T11:30:01.072Z,947.68
2018-08-16T11:31:01.090Z,947.65
2018-08-16T11:32:01.127Z,947.71
2018-08-16T11:33:01.122Z,947.70
2018-08-16T11:34:01.143Z,947.67
2018-08-16T11:35:01.173Z,947.69
2018-08-16T11:36:01.177Z,947.68
2018-08-16T11:37:01.187Z,947.68
2018-08-16T11:38:01.208Z,947.67
2018-08-16T11:39:01.231Z,947.60
2018-08-16T11:40:01.229Z,947.63
2018-08-16T11:41:01.266Z,947.62
2018-08-16T11:42:01.274Z,947.59
2018-08-16T11:43:01.291Z,947.56
2018-08-16T11:44:01.301Z,947.59
2018-08-16T11:45:01.327Z,947.57
2018-08-16T11:46:01.325Z,947.58
2018-08-16T11:47:01.354Z,947.54
2018-08-16T11:48:01.368Z,947.55
2018-08-16T11:49:01.382Z,947.53
2018-08-16T11:50:01.403Z,947.50
2018-08-16T11:51:01.420Z,947.53
2018-08-16T11:52:01.432Z,947.52
2018-08-16T11:53:01.450Z,947.50
2018-08-16T11:54:01.463Z,947.51
2018-08-16T11:55:01.483Z,947.53
2018-08-16T11:56:01.519Z,947.50
2018-08-16T11:57:01.524Z,947.47
2018-08-16T11:58:01.535Z,947.46
2018-08-16T11:59:01.552Z,947.46
2018-08-16T12:00:01.563Z,947.44
2018-08-16T12:01:01.588Z,947.44
2018-08-16T12:02:01.657Z,947.45
2018-08-16T12:03:01.612Z,947.42
2018-08-16T12:04:01.625Z,947.41
2018-08-16T12:05:01.642Z,947.39
2018-08-16T12:06:01.671Z,947.37
2018-08-16T12:07:01.680Z,947.38
2018-08-16T12:08:01.692Z,947.36
2018-08-16T12:09:01.706Z,947.40
2018-08-16T12:10:01.716Z,947.38
2018-08-16T12:11:01.738Z,947.37
2018-08-16T12:12:01.759Z,947.34
2018-08-16T12:13:01.780Z,947.30
2018-08-16T12:14:01.788Z,947.32
2018-08-16T12:15:01.833Z,947.36
2018-08-16T12:16:01.816Z,947.34
2018-08-16T12:17:01.836Z,947.30
2018-08-16T12:18:01.859Z,947.32
2018-08-16T12:19:01.867Z,947.27
2018-08-16T12:20:01.890Z,947.32
2018-08-16T12:21:01.968Z,947.27
2018-08-16T12:22:01.909Z,947.27
2018-08-16T12:23:01.932Z,947.26
2018-08-16T12:24:01.945Z,947.27
2018-08-16T12:25:01.984Z,947.23
2018-08-16T12:26:01.985Z,947.30
2018-08-16T12:27:01.988Z,947.26
2018-08-16T12:28:02.019Z,947.30
2018-08-16T12:29:02.062Z,947.28
2018-08-16T12:30:02.048Z,947.24
2018-08-16T12:31:02.058Z,947.23
2018-08-16T12:32:02.077Z,947.19
2018-08-16T12:33:02.089Z,947.18
2018-08-16T12:34:02.112Z,947.15
2018-08-16T12:35:02.207Z,947.20
2018-08-16T12:36:02.137Z,947.14
2018-08-16T12:37:02.147Z,947.10
2018-08-16T12:38:02.163Z,947.11
2018-08-16T12:39:02.161Z,947.09
2018-08-16T12:40:02.184Z,947.04
2018-08-16T12:41:02.255Z,947.01
2018-08-16T12:42:02.198Z,947.01
2018-08-16T12:43:02.210Z,947.04
2018-08-16T12:44:02.220Z,947.01
2018-08-16T12:45:02.238Z,947.03
2018-08-16T12:46:02.251Z,947.01
2018-08-16T12:47:02.254Z,946.98
2018-08-16T12:48:02.252Z,946.98
2018-08-16T12:49:02.260Z,947.00
2018-08-16T12:50:02.269Z,946.99
2018-08-16T12:51:02.292Z,946.98
2018-08-16T12:52:02.284Z,946.97
2018-08-16T12:53:02.293Z,946.95
2018-08-16T12:54:02.311Z,946.99
2018-08-16T12:55:02.315Z,947.00
2018-08-16T12:56:02.324Z,946.97
2018-08-16T12:57:02.336Z,946.94
2018-08-16T12:58:02.337Z,946.91
2018-08-16T12:59:02.332Z,946.95
2018-08-16T13:00:02.352Z,946.92
2018-08-16T13:01:02.350Z,946.90
2018-08-16T13:02:02.360Z,946.90